Time;durP1;ratioP1;P1;durP2;ratioP2;P2;SDS_P1;SDS_P2;PMS_P1;PMS_P2;Temp;Humidity;BMP_temperature;BMP_pressure;BME280_temperature;BME280_humidity;BME280_pressure;Samples;Min_cycle;Max_cycle;Signal;HPM_P1;HPM_P2
2023/03/25 00:02:23;;;;;;;39.13;4.60;;;9.30;99.90;;;;;;5094427;28;20106;-79
2023/03/25 00:04:50;;;;;;;36.55;5.15;;;9.30;99.90;;;;;;5093005;28;20128;-79
2023/03/25 00:07:20;;;;;;;30.10;4.35;;;9.30;99.90;;;;;;5094038;28;20553;-79
2023/03/25 00:09:46;;;;;;;28.77;6.72;;;9.20;99.90;;;;;;5093165;28;20066;-79
2023/03/25 00:12:14;;;;;;;35.88;4.13;;;9.30;99.90;;;;;;5093063;28;20043;-79
2023/03/25 00:14:41;;;;;;;33.65;6.85;;;9.30;99.90;;;;;;5092938;28;20502;-79
2023/03/25 00:17:09;;;;;;;25.33;3.72;;;9.30;99.90;;;;;;5092700;28;20044;-79
2023/03/25 00:19:35;;;;;;;29.60;3.65;;;9.30;99.90;;;;;;5092873;28;20076;-79
2023/03/25 00:22:01;;;;;;;26.65;3.88;;;9.30;99.90;;;;;;5092558;28;20076;-79
2023/03/25 00:24:27;;;;;;;32.10;4.70;;;9.30;99.90;;;;;;5094008;28;20055;-79
2023/03/25 00:26:53;;;;;;;37.13;5.20;;;9.30;99.90;;;;;;5093950;28;20044;-79
2023/03/25 00:29:19;;;;;;;26.40;4.88;;;9.30;99.90;;;;;;5092642;28;20146;-79
2023/03/25 00:31:45;;;;;;;32.35;6.18;;;9.30;99.90;;;;;;5093147;28;20117;-79
2023/03/25 00:34:14;;;;;;;33.70;4.22;;;9.30;99.90;;;;;;5093615;28;20040;-79
2023/03/25 00:36:42;;;;;;;29.73;4.45;;;9.20;99.90;;;;;;5092215;28;20059;-79
2023/03/25 00:39:08;;;;;;;31.63;5.25;;;9.20;99.90;;;;;;5093870;28;20131;-79
2023/03/25 00:41:35;;;;;;;30.58;5.68;;;9.20;99.90;;;;;;5092756;28;20089;-79
2023/03/25 00:44:03;;;;;;;24.67;4.28;;;9.20;99.90;;;;;;5092740;28;20488;-79
2023/03/25 00:46:31;;;;;;;25.80;4.32;;;9.20;99.90;;;;;;5092687;28;20040;-79
2023/03/25 00:48:57;;;;;;;33.55;4.78;;;9.20;99.90;;;;;;5092276;28;20127;-79
2023/03/25 00:51:24;;;;;;;33.30;4.15;;;9.20;99.90;;;;;;5092259;28;20380;-79
2023/03/25 00:53:52;;;;;;;25.75;4.13;;;9.20;99.90;;;;;;5092119;28;20077;-79
2023/03/25 00:56:19;;;;;;;27.42;4.53;;;9.20;99.90;;;;;;5092552;28;20070;-79
2023/03/25 00:58:45;;;;;;;27.65;4.25;;;9.20;99.90;;;;;;5093567;28;20050;-79
2023/03/25 01:01:17;;;;;;;31.45;5.03;;;9.20;99.90;;;;;;5092377;28;20131;-79
2023/03/25 01:03:43;;;;;;;37.72;7.15;;;9.20;99.90;;;;;;5092225;28;20055;-79
2023/03/25 01:06:14;;;;;;;34.65;4.28;;;9.30;99.90;;;;;;5092420;28;20443;-79
2023/03/25 01:08:41;;;;;;;26.33;5.18;;;9.20;99.90;;;;;;5092218;28;20036;-79
2023/03/25 01:11:20;;;;;;;27.75;4.35;;;9.20;99.90;;;;;;5093624;28;20505;-79
2023/03/25 01:13:46;;;;;;;38.00;4.32;;;9.30;99.90;;;;;;5092517;28;20048;-79
2023/03/25 01:16:12;;;;;;;37.03;4.43;;;9.20;99.90;;;;;;5092303;28;20392;-80
2023/03/25 01:18:37;;;;;;;37.22;5.28;;;9.20;99.90;;;;;;5092041;28;20517;-80
2023/03/25 01:21:05;;;;;;;46.55;4.57;;;9.10;99.90;;;;;;5092379;28;20048;-81
2023/03/25 01:23:31;;;;;;;33.08;5.22;;;9.00;99.90;;;;;;5092187;28;20044;-81
2023/03/25 01:25:56;;;;;;;36.33;5.13;;;8.90;99.90;;;;;;5093192;28;20047;-81
2023/03/25 01:28:22;;;;;;;39.95;4.63;;;8.90;99.90;;;;;;5092220;28;20048;-80
2023/03/25 01:30:49;;;;;;;27.27;3.97;;;8.90;99.90;;;;;;5092230;28;20040;-81
2023/03/25 01:33:15;;;;;;;31.83;4.47;;;8.90;99.90;;;;;;5093442;28;20048;-81
2023/03/25 01:35:41;;;;;;;34.20;6.00;;;8.90;99.90;;;;;;5091843;28;20055;-81
2023/03/25 01:38:06;;;;;;;30.80;5.15;;;8.90;99.90;;;;;;5093161;28;20583;-81
2023/03/25 01:40:32;;;;;;;29.77;5.18;;;8.80;99.90;;;;;;5093420;28;20080;-81
2023/03/25 01:42:58;;;;;;;39.63;4.60;;;8.80;99.90;;;;;;5095322;28;20075;-81
2023/03/25 01:45:33;;;;;;;32.58;4.65;;;8.80;99.90;;;;;;5096740;28;20123;-81
2023/03/25 01:48:09;;;;;;;35.28;5.90;;;8.80;99.90;;;;;;5095931;28;20475;-81
2023/03/25 01:50:39;;;;;;;45.92;7.28;;;8.80;99.90;;;;;;5095808;28;20040;-81
2023/03/25 01:53:06;;;;;;;32.20;4.88;;;8.90;99.90;;;;;;5095662;28;20055;-81
2023/03/25 01:55:34;;;;;;;48.67;4.95;;;8.90;99.90;;;;;;5095389;28;20176;-81
2023/03/25 01:58:03;;;;;;;28.08;5.10;;;8.80;99.90;;;;;;5095450;28;20044;-81
2023/03/25 02:00:30;;;;;;;37.67;6.00;;;8.80;99.90;;;;;;5095400;28;20040;-80
2023/03/25 02:02:58;;;;;;;35.10;5.38;;;8.80;99.90;;;;;;5095391;28;20080;-80
2023/03/25 02:05:32;;;;;;;37.97;6.20;;;8.90;99.90;;;;;;5095702;28;20048;-80
2023/03/25 02:08:04;;;;;;;38.05;5.03;;;8.90;99.90;;;;;;5096717;28;20090;-80
2023/03/25 02:10:31;;;;;;;31.55;4.97;;;8.90;99.90;;;;;;5095430;28;20073;-80
2023/03/25 02:12:57;;;;;;;38.85;5.43;;;8.80;99.90;;;;;;5095535;28;20113;-80
2023/03/25 02:15:23;;;;;;;34.10;5.80;;;8.90;99.90;;;;;;5095466;28;20445;-80
2023/03/25 02:17:52;;;;;;;28.55;5.60;;;8.80;99.90;;;;;;5095248;28;20039;-80
2023/03/25 02:20:53;;;;;;;42.50;6.43;;;8.90;99.90;;;;;;5096465;28;20044;-80
2023/03/25 02:23:30;;;;;;;33.80;5.50;;;8.90;99.90;;;;;;5096544;28;20044;-80
2023/03/25 02:26:18;;;;;;;46.08;5.15;;;8.90;99.90;;;;;;5095411;28;20122;-80
2023/03/25 02:29:01;;;;;;;29.45;5.25;;;8.90;99.90;;;;;;5094986;28;20043;-80
2023/03/25 02:31:44;;;;;;;27.10;4.85;;;8.90;99.90;;;;;;5096563;28;20498;-80
2023/03/25 02:34:34;;;;;;;32.20;6.22;;;8.90;99.90;;;;;;5094898;28;20487;-80
2023/03/25 02:37:06;;;;;;;33.92;4.47;;;8.90;99.90;;;;;;5094506;28;20474;-80
2023/03/25 02:39:44;;;;;;;34.85;5.05;;;8.90;99.90;;;;;;5096114;28;20044;-80
2023/03/25 02:42:33;;;;;;;28.08;5.80;;;8.90;99.90;;;;;;5095007;28;20040;-80
2023/03/25 02:45:05;;;;;;;41.40;6.57;;;9.00;99.90;;;;;;5095849;28;20040;-80
2023/03/25 02:47:35;;;;;;;37.47;4.20;;;8.90;99.90;;;;;;5094952;28;20083;-80
2023/03/25 02:50:20;;;;;;;38.78;6.53;;;8.90;99.90;;;;;;5094472;28;20520;-80
2023/03/25 02:52:54;;;;;;;32.42;4.78;;;8.90;99.90;;;;;;5095850;28;20109;-80
2023/03/25 02:55:24;;;;;;;33.00;5.78;;;8.90;99.90;;;;;;5094862;28;20039;-80
2023/03/25 02:57:53;;;;;;;47.05;5.68;;;8.80;99.90;;;;;;5094355;28;20123;-79
2023/03/25 03:00:25;;;;;;;34.90;6.78;;;8.90;99.90;;;;;;5095652;28;20040;-80
2023/03/25 03:02:58;;;;;;;51.60;6.88;;;8.90;99.90;;;;;;5095700;28;20040;-80
2023/03/25 03:05:30;;;;;;;34.17;5.38;;;8.90;99.90;;;;;;5094334;28;20475;-80
2023/03/25 03:08:21;;;;;;;40.78;5.45;;;8.80;99.90;;;;;;5094314;28;20059;-80
2023/03/25 03:11:26;;;;;;;36.30;5.28;;;8.80;99.90;;;;;;5095532;28;20044;-80
2023/03/25 03:14:10;;;;;;;33.17;5.75;;;8.80;99.90;;;;;;5080282;28;20059;-80
2023/03/25 03:16:49;;;;;;;35.10;5.75;;;8.90;99.90;;;;;;5094230;28;20040;-80
2023/03/25 03:19:37;;;;;;;44.63;7.53;;;8.80;99.90;;;;;;5094006;28;20083;-80
2023/03/25 03:22:14;;;;;;;34.17;5.18;;;8.80;99.90;;;;;;5094154;28;20036;-80
2023/03/25 03:24:46;;;;;;;43.97;5.45;;;8.80;99.90;;;;;;5094231;28;20056;-80
2023/03/25 03:27:25;;;;;;;37.60;6.68;;;8.80;99.90;;;;;;5094010;28;20051;-80
2023/03/25 03:29:59;;;;;;;29.00;4.88;;;8.80;99.90;;;;;;5094193;28;20044;-80
2023/03/25 03:32:40;;;;;;;34.42;5.95;;;8.80;99.90;;;;;;5095238;28;20048;-80
2023/03/25 03:35:17;;;;;;;41.13;5.82;;;8.90;99.90;;;;;;5093821;28;20052;-80
2023/03/25 03:37:48;;;;;;;33.22;4.72;;;8.80;99.90;;;;;;5094667;28;20604;-80
2023/03/25 03:40:21;;;;;;;40.38;6.20;;;8.80;99.90;;;;;;5093778;28;20040;-80
2023/03/25 03:42:55;;;;;;;40.55;5.57;;;8.80;99.90;;;;;;5093537;28;20059;-80
2023/03/25 03:45:43;;;;;;;31.67;5.00;;;8.80;99.90;;;;;;5093602;28;20044;-80
2023/03/25 03:48:18;;;;;;;36.22;6.38;;;8.80;99.90;;;;;;5093458;28;20052;-80
2023/03/25 03:50:53;;;;;;;33.65;4.68;;;8.70;99.90;;;;;;5093519;28;20036;-80
2023/03/25 03:53:32;;;;;;;30.33;6.93;;;8.80;99.90;;;;;;5093594;28;20048;-80
2023/03/25 03:56:12;;;;;;;32.88;5.82;;;8.80;99.90;;;;;;5093714;28;20036;-80
2023/03/25 03:58:43;;;;;;;40.03;5.60;;;8.80;99.90;;;;;;5093105;28;20040;-80
2023/03/25 04:01:44;;;;;;;46.08;7.30;;;8.80;99.90;;;;;;5093189;28;20502;-80
2023/03/25 04:04:22;;;;;;;31.83;5.72;;;8.80;99.90;;;;;;5094648;28;20125;-80
2023/03/25 04:07:00;;;;;;;38.83;5.13;;;8.70;99.90;;;;;;5094820;28;20047;-80
2023/03/25 04:09:42;;;;;;;31.80;4.25;;;8.80;99.90;;;;;;5093012;28;20127;-80
2023/03/25 04:12:15;;;;;;;41.95;5.95;;;8.80;99.90;;;;;;5093319;28;20059;-80
2023/03/25 04:14:41;;;;;;;;;;;8.80;99.90;;;;;;5094708;28;20443;-80
2023/03/25 04:17:07;;;;;;;42.60;6.32;;;8.80;99.90;;;;;;5094156;28;20018;-80
2023/03/25 04:19:35;;;;;;;40.35;5.53;;;8.80;99.90;;;;;;5092782;28;20098;-80
2023/03/25 04:22:02;;;;;;;39.38;6.00;;;8.80;99.90;;;;;;5094005;28;20375;-80
2023/03/25 04:24:30;;;;;;;36.35;5.03;;;8.80;99.90;;;;;;5093961;28;20480;-80
2023/03/25 04:27:03;;;;;;;36.78;5.30;;;8.80;99.90;;;;;;5093068;28;20039;-80
2023/03/25 04:29:32;;;;;;;36.03;7.50;;;8.80;99.90;;;;;;5092810;28;20501;-80
2023/03/25 04:32:01;;;;;;;27.83;5.18;;;8.90;99.90;;;;;;5092629;28;20071;-80
2023/03/25 04:34:27;;;;;;;34.03;4.57;;;8.90;99.90;;;;;;5092838;28;20036;-80
2023/03/25 04:36:54;;;;;;;38.40;5.93;;;8.90;99.90;;;;;;5093593;28;20368;-80
2023/03/25 04:39:23;;;;;;;35.28;5.88;;;8.80;99.90;;;;;;5092637;28;20051;-80
2023/03/25 04:41:50;;;;;;;33.58;4.88;;;8.90;99.90;;;;;;5092587;28;20473;-80
2023/03/25 04:44:16;;;;;;;34.30;5.53;;;8.90;99.90;;;;;;5092404;28;20048;-81
2023/03/25 04:46:42;;;;;;;41.25;6.10;;;8.90;99.90;;;;;;5092409;28;20502;-81
2023/03/25 04:49:17;;;;;;;29.90;5.05;;;8.80;99.90;;;;;;5093845;28;20048;-81
2023/03/25 04:51:43;;;;;;;34.67;5.10;;;8.90;99.90;;;;;;5092762;28;20055;-80
2023/03/25 04:54:10;;;;;;;40.40;5.15;;;8.80;99.90;;;;;;5092274;28;20411;-80
2023/03/25 04:56:36;;;;;;;31.73;4.68;;;8.80;99.90;;;;;;5093644;28;20483;-81
2023/03/25 04:59:03;;;;;;;38.83;6.05;;;8.80;99.90;;;;;;5093795;28;20044;-80
2023/03/25 05:01:29;;;;;;;31.73;6.03;;;8.70;99.90;;;;;;5092561;28;20056;-80
2023/03/25 05:04:03;;;;;;;32.90;8.65;;;8.80;99.90;;;;;;5092321;28;20059;-80
2023/03/25 05:06:31;;;;;;;34.10;6.15;;;8.80;99.90;;;;;;5093843;28;20036;-80
2023/03/25 05:08:58;;;;;;;29.63;3.90;;;8.80;99.90;;;;;;5093617;28;20056;-80
2023/03/25 05:11:24;;;;;;;31.85;5.28;;;8.80;99.90;;;;;;5092701;28;20060;-80
2023/03/25 05:13:50;;;;;;;35.67;4.72;;;8.70;99.90;;;;;;5092283;28;20123;-80
2023/03/25 05:16:15;;;;;;;34.75;5.45;;;8.80;99.90;;;;;;5092255;28;20054;-80
2023/03/25 05:18:41;;;;;;;30.08;5.15;;;8.70;99.90;;;;;;5096532;28;20079;-80
2023/03/25 05:21:07;;;;;;;33.88;4.80;;;8.80;99.90;;;;;;5097720;28;20040;-80
2023/03/25 05:23:32;;;;;;;40.25;5.53;;;8.70;99.90;;;;;;5097554;28;20444;-80
2023/03/25 05:25:58;;;;;;;35.63;4.60;;;8.80;99.90;;;;;;5096056;28;20080;-80
2023/03/25 05:28:24;;;;;;;33.08;5.00;;;8.70;99.90;;;;;;5097208;28;20052;-80
2023/03/25 05:30:50;;;;;;;35.72;6.43;;;8.80;99.90;;;;;;5096963;28;20043;-80
2023/03/25 05:33:17;;;;;;;31.63;5.00;;;8.80;99.90;;;;;;5095354;28;20043;-80
2023/03/25 05:35:46;;;;;;;29.63;5.38;;;8.80;99.90;;;;;;5097335;28;20059;-80
2023/03/25 05:38:17;;;;;;;32.20;4.90;;;8.80;99.90;;;;;;5095637;28;20483;-80
2023/03/25 05:40:44;;;;;;;34.10;5.85;;;8.70;99.90;;;;;;5096061;28;20119;-80
2023/03/25 05:43:10;;;;;;;38.13;5.80;;;8.70;99.90;;;;;;5095654;28;20514;-80
2023/03/25 05:45:38;;;;;;;25.88;3.72;;;8.70;99.90;;;;;;5095614;28;20040;-80
2023/03/25 05:48:04;;;;;;;28.30;5.13;;;8.70;99.90;;;;;;5095562;28;20047;-80
2023/03/25 05:50:30;;;;;;;28.83;4.57;;;8.70;99.90;;;;;;5095765;28;20044;-80
2023/03/25 05:52:56;;;;;;;23.50;3.97;;;8.70;99.90;;;;;;5095727;28;20052;-80
2023/03/25 05:55:22;;;;;;;40.40;5.13;;;8.70;99.90;;;;;;5095757;28;20479;-80
2023/03/25 05:57:49;;;;;;;25.50;5.07;;;8.70;99.90;;;;;;5095344;28;20044;-80
2023/03/25 06:00:18;;;;;;;33.50;6.40;;;8.70;99.90;;;;;;5095352;28;20044;-80
2023/03/25 06:02:44;;;;;;;31.48;4.32;;;8.70;99.90;;;;;;5095389;28;20048;-80
2023/03/25 06:05:14;;;;;;;27.88;5.63;;;8.70;99.90;;;;;;5095506;28;20048;-80
2023/03/25 06:07:42;;;;;;;36.05;5.93;;;8.70;99.90;;;;;;5096775;28;20077;-80
2023/03/25 06:10:15;;;;;;;37.05;5.28;;;8.70;99.90;;;;;;5095383;28;20044;-81
2023/03/25 06:12:42;;;;;;;31.35;4.63;;;8.70;99.90;;;;;;5095206;28;20052;-80
2023/03/25 06:15:09;;;;;;;26.33;4.88;;;8.70;99.90;;;;;;5095288;28;20399;-80
2023/03/25 06:17:38;;;;;;;32.92;5.05;;;8.70;99.90;;;;;;5095130;28;20048;-80
2023/03/25 06:20:11;;;;;;;34.83;4.40;;;8.70;99.90;;;;;;5095299;28;20044;-80
2023/03/25 06:22:43;;;;;;;33.35;4.10;;;8.70;99.90;;;;;;5095276;28;20043;-80
2023/03/25 06:25:10;;;;;;;27.02;3.60;;;8.80;99.90;;;;;;5095006;28;20055;-80
2023/03/25 06:27:39;;;;;;;31.98;5.22;;;8.70;99.90;;;;;;5094804;28;20073;-80
2023/03/25 06:30:10;;;;;;;26.83;4.40;;;8.80;99.90;;;;;;5093525;28;20059;-80
2023/03/25 06:32:36;;;;;;;28.58;4.18;;;8.80;99.90;;;;;;5095110;28;20062;-80
2023/03/25 06:35:07;;;;;;;28.98;6.28;;;8.80;99.90;;;;;;5094478;28;20096;-80
2023/03/25 06:37:34;;;;;;;25.95;4.75;;;8.80;99.90;;;;;;5094830;28;20052;-80
2023/03/25 06:39:59;;;;;;;22.90;4.10;;;8.80;99.90;;;;;;5094632;28;20044;-80
2023/03/25 06:42:28;;;;;;;33.35;4.90;;;8.80;99.90;;;;;;5094551;28;20059;-80
2023/03/25 06:44:54;;;;;;;26.77;4.20;;;8.90;99.90;;;;;;5096009;28;20036;-80
2023/03/25 06:47:21;;;;;;;33.42;4.07;;;8.90;99.90;;;;;;5095821;28;20046;-80
2023/03/25 06:49:47;;;;;;;27.75;5.15;;;8.90;99.90;;;;;;5094494;28;20118;-80
2023/03/25 06:52:12;;;;;;;32.35;4.35;;;9.00;99.90;;;;;;5094404;28;20167;-80
2023/03/25 06:54:38;;;;;;;32.15;5.25;;;9.00;99.90;;;;;;5094444;28;20051;-80
2023/03/25 06:57:05;;;;;;;32.45;4.43;;;9.00;99.90;;;;;;5094268;28;20040;-80
2023/03/25 06:59:31;;;;;;;28.55;3.83;;;8.90;99.90;;;;;;5095431;28;20047;-80
2023/03/25 07:01:57;;;;;;;27.63;4.05;;;9.00;99.90;;;;;;5094201;28;20044;-80
2023/03/25 07:04:23;;;;;;;27.42;4.38;;;9.00;99.90;;;;;;5094401;28;20047;-80
2023/03/25 07:06:48;;;;;;;31.08;4.55;;;9.10;99.90;;;;;;5094139;28;20044;-80
2023/03/25 07:09:14;;;;;;;20.20;3.47;;;9.20;99.90;;;;;;5094022;28;20051;-80
2023/03/25 07:11:40;;;;;;;21.30;3.38;;;9.20;99.90;;;;;;5093937;28;20036;-80
2023/03/25 07:14:06;;;;;;;20.05;4.15;;;9.20;99.90;;;;;;5093797;28;20403;-80
2023/03/25 07:16:32;;;;;;;25.23;3.50;;;9.20;99.90;;;;;;5093897;28;20505;-80
2023/03/25 07:18:58;;;;;;;21.85;3.17;;;9.10;99.90;;;;;;5093660;28;20040;-81
2023/03/25 07:21:24;;;;;;;32.88;4.00;;;9.10;99.90;;;;;;5094130;28;20530;-80
2023/03/25 07:23:50;;;;;;;28.25;3.95;;;9.10;99.90;;;;;;5093954;28;20036;-81
2023/03/25 07:26:15;;;;;;;22.13;3.88;;;9.00;99.90;;;;;;5093836;28;20509;-81
2023/03/25 07:28:41;;;;;;;29.40;4.05;;;9.00;99.90;;;;;;5093559;28;20044;-80
2023/03/25 07:31:12;;;;;;;26.40;3.58;;;9.00;99.90;;;;;;5093839;28;20043;-80
2023/03/25 07:33:38;;;;;;;26.60;3.80;;;9.00;99.90;;;;;;5093642;28;20044;-80
2023/03/25 07:36:10;;;;;;;21.70;3.72;;;9.00;99.90;;;;;;5093281;28;20056;-81
2023/03/25 07:38:36;;;;;;;22.77;3.17;;;9.00;99.90;;;;;;5093453;28;20055;-80
2023/03/25 07:41:10;;;;;;;27.35;4.57;;;9.00;99.90;;;;;;5093290;28;20245;-80
2023/03/25 07:43:36;;;;;;;24.48;3.55;;;9.10;99.90;;;;;;5093736;28;20044;-80
2023/03/25 07:46:02;;;;;;;17.63;4.38;;;9.20;99.90;;;;;;5094394;28;20484;-80
2023/03/25 07:48:27;;;;;;;23.67;3.95;;;9.20;99.90;;;;;;5092417;28;20064;-80
2023/03/25 07:50:53;;;;;;;19.92;3.67;;;9.20;99.90;;;;;;5093366;28;20074;-80
2023/03/25 07:53:19;;;;;;;19.40;3.75;;;9.30;99.90;;;;;;5092983;28;20437;-80
2023/03/25 07:55:45;;;;;;;22.45;3.13;;;9.30;99.90;;;;;;5093179;28;20491;-82
2023/03/25 07:58:12;;;;;;;19.17;3.90;;;9.30;99.90;;;;;;5092929;28;20044;-86
2023/03/25 08:00:37;;;;;;;22.83;3.00;;;9.30;99.90;;;;;;5092786;28;20036;-79
2023/03/25 08:03:03;;;;;;;23.63;3.47;;;9.30;99.90;;;;;;5093011;28;20044;-80
2023/03/25 08:05:30;;;;;;;26.52;3.63;;;9.40;99.90;;;;;;5093076;28;20051;-80
2023/03/25 08:07:58;;;;;;;22.83;4.47;;;9.30;99.90;;;;;;5092748;28;20083;-80
2023/03/25 08:10:25;;;;;;;28.95;3.20;;;9.40;99.90;;;;;;5092618;28;20086;-80
2023/03/25 08:12:54;;;;;;;29.75;4.63;;;9.40;99.90;;;;;;5092906;28;20040;-87
2023/03/25 08:15:23;;;;;;;22.85;4.72;;;9.40;99.90;;;;;;5092862;28;20453;-80
2023/03/25 08:17:50;;;;;;;19.20;2.67;;;9.30;99.90;;;;;;5092666;28;20040;-81
2023/03/25 08:20:18;;;;;;;17.05;3.97;;;9.30;99.90;;;;;;5092607;28;20072;-84
2023/03/25 08:22:50;;;;;;;20.42;3.22;;;9.20;99.90;;;;;;5092403;28;20055;-83
2023/03/25 08:25:15;;;;;;;20.83;2.97;;;9.30;99.90;;;;;;5092390;28;20048;-85
2023/03/25 08:27:42;;;;;;;23.73;3.50;;;9.30;99.90;;;;;;5092680;28;20044;-86
2023/03/25 08:30:09;;;;;;;18.45;2.53;;;9.20;99.90;;;;;;5092359;28;20479;-82
2023/03/25 08:32:37;;;;;;;17.58;3.85;;;9.20;99.90;;;;;;5093628;28;20052;-84
2023/03/25 08:35:04;;;;;;;20.50;3.53;;;9.10;99.90;;;;;;5093358;28;20127;-84
2023/03/25 08:37:34;;;;;;;24.77;3.60;;;9.20;99.90;;;;;;5092092;28;20044;-84
2023/03/25 08:40:01;;;;;;;29.02;4.85;;;9.20;99.90;;;;;;5093085;28;20043;-84
2023/03/25 08:42:26;;;;;;;25.02;4.10;;;9.20;99.90;;;;;;5092207;28;20115;-84
2023/03/25 08:44:52;;;;;;;25.10;4.55;;;9.30;99.90;;;;;;5093426;28;20123;-84
2023/03/25 08:47:17;;;;;;;18.17;3.28;;;9.40;99.90;;;;;;5092182;28;20036;-84
2023/03/25 08:49:43;;;;;;;29.65;5.63;;;9.50;99.90;;;;;;5091997;28;20043;-84
2023/03/25 08:52:09;;;;;;;24.75;4.88;;;9.60;99.90;;;;;;5091572;28;20047;-84
2023/03/25 08:54:35;;;;;;;23.98;4.10;;;9.70;99.90;;;;;;5091997;28;20454;-84
2023/03/25 08:57:01;;;;;;;24.95;3.88;;;9.80;99.90;;;;;;5092201;28;20486;-84
2023/03/25 08:59:27;;;;;;;25.00;3.65;;;9.80;99.90;;;;;;5092088;28;20044;-84
2023/03/25 09:01:52;;;;;;;28.10;4.47;;;9.90;99.90;;;;;;5092270;28;20040;-84
2023/03/25 09:04:18;;;;;;;31.58;4.57;;;9.90;99.90;;;;;;5091951;28;20379;-84
2023/03/25 09:06:44;;;;;;;21.95;3.95;;;9.90;99.90;;;;;;5092212;28;20547;-84
2023/03/25 09:09:10;;;;;;;20.52;4.80;;;9.90;99.90;;;;;;5091911;28;20491;-84
2023/03/25 09:11:37;;;;;;;20.17;3.40;;;9.90;99.90;;;;;;5091860;28;20403;-85
2023/03/25 09:14:03;;;;;;;29.73;4.35;;;10.00;99.90;;;;;;5093421;28;20059;-83
2023/03/25 09:16:33;;;;;;;21.27;3.33;;;10.00;99.90;;;;;;5092140;28;20517;-83
2023/03/25 09:18:59;;;;;;;25.65;3.65;;;10.10;99.90;;;;;;5091701;28;20517;-83
2023/03/25 09:21:25;;;;;;;22.05;5.10;;;10.10;99.90;;;;;;5092101;28;20135;-81
2023/03/25 09:23:51;;;;;;;21.48;2.83;;;10.10;99.90;;;;;;5091768;28;20139;-82
2023/03/25 09:26:17;;;;;;;32.08;4.25;;;10.30;99.90;;;;;;5091575;28;20052;-82
2023/03/25 09:28:42;;;;;;;25.58;3.45;;;10.30;99.90;;;;;;5092008;28;20059;-82
2023/03/25 09:31:08;;;;;;;27.88;3.45;;;10.30;99.90;;;;;;5091608;28;20048;-81
2023/03/25 09:33:35;;;;;;;29.88;5.20;;;10.30;99.90;;;;;;5091894;28;20044;-81
2023/03/25 09:36:02;;;;;;;22.10;4.07;;;10.20;99.90;;;;;;5091526;28;20083;-81
2023/03/25 09:38:28;;;;;;;22.08;3.83;;;10.30;99.90;;;;;;5091576;28;20047;-81
2023/03/25 09:40:54;;;;;;;15.98;3.03;;;10.20;99.90;;;;;;5091307;28;20054;-82
2023/03/25 09:43:32;;;;;;;20.48;3.97;;;10.20;99.90;;;;;;5091072;28;20127;-81
2023/03/25 09:46:02;;;;;;;22.42;4.57;;;10.20;99.90;;;;;;5093090;28;20040;-81
2023/03/25 09:48:36;;;;;;;26.90;4.90;;;10.20;99.90;;;;;;5091524;28;20044;-81
2023/03/25 09:51:05;;;;;;;28.77;4.78;;;10.20;99.90;;;;;;5091621;28;20048;-81
2023/03/25 09:53:45;;;;;;;24.20;4.25;;;10.30;99.90;;;;;;5091436;28;20045;-82
2023/03/25 09:56:18;;;;;;;20.80;2.97;;;10.40;99.90;;;;;;5091733;28;20433;-81
2023/03/25 09:58:53;;;;;;;21.08;3.63;;;10.40;99.90;;;;;;5091169;28;20514;-81
2023/03/25 10:02:01;;;;;;;30.85;4.45;;;10.30;99.90;;;;;;5091552;28;20075;-81
2023/03/25 10:04:45;;;;;;;25.70;3.30;;;10.40;99.90;;;;;;5075877;28;20460;-81
2023/03/25 10:08:01;;;;;;;19.90;3.88;;;10.40;99.90;;;;;;5077099;28;20527;-81
2023/03/25 10:10:46;;;;;;;20.52;2.85;;;10.50;99.90;;;;;;5071561;28;20165;-80
2023/03/25 10:13:45;;;;;;;22.90;3.72;;;10.50;99.90;;;;;;5095127;28;20055;-81
2023/03/25 10:16:33;;;;;;;26.20;3.10;;;10.50;99.90;;;;;;5094800;28;20399;-81
2023/03/25 10:19:04;;;;;;;24.30;3.60;;;10.60;99.90;;;;;;5094801;28;20087;-81
2023/03/25 10:21:56;;;;;;;17.88;2.95;;;10.60;99.90;;;;;;5094680;28;20040;-81
2023/03/25 10:24:28;;;;;;;25.23;2.83;;;10.70;99.90;;;;;;5094693;28;20048;-81
2023/03/25 10:27:04;;;;;;;24.13;3.25;;;10.80;99.90;;;;;;5094711;28;20048;-80
2023/03/25 10:29:30;;;;;;;18.40;2.85;;;10.90;99.90;;;;;;5094884;28;20066;-80
2023/03/25 10:32:00;;;;;;;20.75;2.92;;;11.00;99.90;;;;;;5094630;28;20415;-81
2023/03/25 10:34:38;;;;;;;21.33;3.63;;;11.00;99.90;;;;;;5094751;28;20089;-80
2023/03/25 10:37:11;;;;;;;22.05;3.50;;;11.00;99.90;;;;;;5094355;28;20052;-81
2023/03/25 10:39:44;;;;;;;13.48;2.20;;;11.10;99.90;;;;;;5094245;28;20056;-83
2023/03/25 10:42:27;;;;;;;19.92;3.70;;;11.10;99.90;;;;;;5094711;28;20088;-81
2023/03/25 10:44:53;;;;;;;21.67;3.90;;;11.10;99.90;;;;;;5094542;28;20457;-83
2023/03/25 10:47:25;;;;;;;24.35;3.97;;;11.00;99.90;;;;;;5094555;28;20040;-81
2023/03/25 10:49:53;;;;;;;23.25;3.80;;;11.10;99.90;;;;;;5094282;28;20075;-81
2023/03/25 10:52:19;;;;;;;20.67;4.97;;;11.10;99.90;;;;;;5094259;28;20044;-81
2023/03/25 10:54:49;;;;;;;26.88;4.03;;;11.10;99.90;;;;;;5094033;28;20050;-82
2023/03/25 10:57:26;;;;;;;18.25;3.30;;;11.10;99.90;;;;;;5094053;28;20074;-81
2023/03/25 11:00:16;;;;;;;24.25;3.90;;;11.10;99.90;;;;;;5095241;28;20054;-82
2023/03/25 11:02:43;;;;;;;21.25;4.00;;;11.10;99.90;;;;;;5094228;28;20048;-80
2023/03/25 11:05:09;;;;;;;29.38;3.70;;;11.00;99.90;;;;;;5094256;28;20085;-81
2023/03/25 11:07:39;;;;;;;20.23;3.80;;;11.10;99.90;;;;;;5094188;28;20127;-81
2023/03/25 11:10:12;;;;;;;23.95;4.18;;;11.10;99.90;;;;;;5093900;28;20422;-82
2023/03/25 11:12:44;;;;;;;23.15;3.92;;;11.20;99.90;;;;;;5094078;28;20051;-83
2023/03/25 11:15:24;;;;;;;24.08;4.05;;;11.30;99.90;;;;;;5092961;28;20097;-83
2023/03/25 11:18:03;;;;;;;24.63;3.20;;;11.30;99.90;;;;;;5093670;28;20487;-81
2023/03/25 11:20:46;;;;;;;21.00;3.20;;;11.40;99.90;;;;;;5093661;28;20063;-82
2023/03/25 11:23:21;;;;;;;;;;;11.50;99.90;;;;;;5094329;28;20043;-81
2023/03/25 11:25:47;;;;;;;25.98;3.40;;;11.50;99.90;;;;;;5093770;28;19929;-81
2023/03/25 11:28:18;;;;;;;17.63;2.95;;;11.40;99.90;;;;;;5093684;28;20123;-81
2023/03/25 11:31:13;;;;;;;25.33;4.15;;;11.40;99.90;;;;;;5093190;28;20161;-82
2023/03/25 11:33:42;;;;;;;20.13;3.30;;;11.30;99.90;;;;;;5092107;28;20047;-81
2023/03/25 11:36:12;;;;;;;23.33;3.85;;;11.20;99.90;;;;;;5091316;28;20043;-81
2023/03/25 11:38:48;;;;;;;13.40;3.42;;;11.30;99.90;;;;;;5093000;28;20060;-82
2023/03/25 11:41:14;;;;;;;20.55;3.83;;;11.30;99.90;;;;;;5093088;28;20455;-79
2023/03/25 11:43:40;;;;;;;17.98;3.17;;;11.30;99.90;;;;;;5094629;28;20506;-79
2023/03/25 11:46:09;;;;;;;20.52;3.35;;;11.30;99.90;;;;;;5094356;28;20040;-81
2023/03/25 11:48:39;;;;;;;19.80;3.42;;;11.40;99.90;;;;;;5094346;28;20070;-80
2023/03/25 11:51:12;;;;;;;17.05;4.22;;;11.40;99.90;;;;;;5092945;28;20139;-80
2023/03/25 11:53:53;;;;;;;22.55;2.60;;;11.40;99.90;;;;;;5093258;28;20047;-79
2023/03/25 11:56:27;;;;;;;19.52;2.92;;;11.40;99.90;;;;;;5093002;28;20083;-78
2023/03/25 11:58:58;;;;;;;23.95;3.75;;;11.40;99.90;;;;;;5092856;28;20051;-79
2023/03/25 12:01:35;;;;;;;16.42;3.65;;;11.40;99.90;;;;;;5092716;28;20139;-79
2023/03/25 12:04:22;;;;;;;18.83;3.08;;;11.40;99.90;;;;;;5092774;28;20078;-79
2023/03/25 12:07:06;;;;;;;18.52;4.25;;;11.50;99.90;;;;;;5093036;28;20048;-79
2023/03/25 12:09:31;;;;;;;21.70;3.33;;;11.50;99.90;;;;;;5092860;28;20055;-79
2023/03/25 12:12:02;;;;;;;25.85;3.85;;;11.50;99.90;;;;;;5092698;28;20036;-79
2023/03/25 12:14:42;;;;;;;25.13;4.40;;;11.40;99.90;;;;;;5093016;28;20048;-81
2023/03/25 12:17:41;;;;;;;18.00;3.53;;;11.50;99.90;;;;;;5092664;28;20399;-81
2023/03/25 12:20:39;;;;;;;19.08;4.10;;;11.60;99.90;;;;;;5094073;28;20047;-83
2023/03/25 12:23:32;;;;;;;24.90;3.90;;;11.60;99.90;;;;;;5093809;28;20120;-80
2023/03/25 12:26:14;;;;;;;20.65;3.55;;;11.60;99.90;;;;;;5091908;28;20052;-77
2023/03/25 12:28:51;;;;;;;23.70;5.03;;;11.90;99.90;;;;;;5094123;28;20430;-78
2023/03/25 12:31:39;;;;;;;30.00;5.85;;;11.80;99.90;;;;;;5092013;28;20105;-81
2023/03/25 12:34:11;;;;;;;21.15;3.80;;;11.80;99.90;;;;;;5093853;28;20040;-80
2023/03/25 12:37:15;;;;;;;23.93;3.73;;;11.70;99.90;;;;;;5095059;28;20506;-79
2023/03/25 12:39:40;;;;;;;;;;;11.50;99.90;;;;;;5092851;28;20343;-79
2023/03/25 12:42:24;;;;;;;18.00;3.53;;;11.40;99.90;;;;;;5092158;28;19916;-79
2023/03/25 12:45:14;;;;;;;34.53;4.57;;;11.40;99.90;;;;;;5103335;28;20052;-79
2023/03/25 12:47:49;;;;;;;18.60;2.65;;;11.40;99.90;;;;;;5092403;28;20048;-79
2023/03/25 12:50:30;;;;;;;19.13;3.30;;;11.30;99.90;;;;;;5093718;28;20047;-79
2023/03/25 12:53:52;;;;;;;15.38;3.45;;;11.10;99.90;;;;;;5093453;28;20044;-79
2023/03/25 12:56:43;;;;;;;16.08;2.35;;;11.00;99.90;;;;;;5010382;28;20049;-79
2023/03/25 12:59:33;;;;;;;20.33;3.03;;;11.00;99.90;;;;;;5073398;28;20041;-89
2023/03/25 13:02:26;;;;;;;12.95;1.70;;;10.90;99.90;;;;;;5103620;28;20513;-79
2023/03/25 13:05:13;;;;;;;;;;;10.50;99.90;;;;;;5114348;28;20071;-81
2023/03/25 13:07:45;;;;;;;11.57;1.30;;;10.30;99.90;;;;;;5112676;28;20002;-81
2023/03/25 13:10:21;;;;;;;6.38;0.80;;;10.10;99.90;;;;;;5110947;28;20035;-90